Time;durP1;ratioP1;P1;durP2;ratioP2;P2;SDS_P1;SDS_P2;PMS_P1;PMS_P2;Temp;Humidity;BMP_temperature;BMP_pressure;BME280_temperature;BME280_humidity;BME280_pressure;Samples;Min_cycle;Max_cycle;Signal;HPM_P1;HPM_P2
2022/05/25 00:00:01;;;;;;;1.83;1.47;;;14.60;99.90;;;;;;4831154;29;21073;-89
2022/05/25 00:02:30;;;;;;;1.77;1.20;;;14.50;99.90;;;;;;4833506;29;21371;-91
2022/05/25 00:04:56;;;;;;;1.40;1.30;;;14.50;99.90;;;;;;4831744;29;20466;-91
2022/05/25 00:07:45;;;;;;;2.53;1.40;;;14.50;99.90;;;;;;4833309;29;21542;-91
2022/05/25 00:10:11;;;;;;;1.83;1.50;;;14.40;99.90;;;;;;4854921;29;20250;-89
2022/05/25 00:12:41;;;;;;;1.13;1.13;;;14.30;99.90;;;;;;4839154;29;20462;-90
2022/05/25 00:15:28;;;;;;;1.63;1.30;;;14.30;99.90;;;;;;4830372;29;20481;-91
2022/05/25 00:17:55;;;;;;;1.20;1.10;;;14.50;99.90;;;;;;4833363;29;20970;-91
2022/05/25 00:20:21;;;;;;;3.57;1.40;;;14.50;99.90;;;;;;4839876;29;20447;-89
2022/05/25 00:22:55;;;;;;;1.10;1.10;;;14.60;99.90;;;;;;4839236;29;20454;-89
2022/05/25 00:25:47;;;;;;;1.13;1.03;;;14.50;99.90;;;;;;4832758;29;20575;-91
2022/05/25 00:28:14;;;;;;;1.50;1.40;;;14.50;99.90;;;;;;4842124;29;21043;-91
2022/05/25 00:31:00;;;;;;;1.43;1.33;;;14.60;99.90;;;;;;4834406;29;20458;-90
2022/05/25 00:33:50;;;;;;;1.53;1.43;;;14.60;99.90;;;;;;4833731;29;20483;-91
2022/05/25 00:36:18;;;;;;;1.40;1.27;;;14.50;99.90;;;;;;4829325;29;20474;-91
2022/05/25 00:39:14;;;;;;;1.23;1.13;;;14.50;99.90;;;;;;4821058;29;22553;-91
2022/05/25 00:41:39;;;;;;;2.70;1.40;;;14.50;99.90;;;;;;4819010;29;20454;-91
2022/05/25 00:44:05;;;;;;;0.90;0.90;;;14.40;99.90;;;;;;4827569;29;20510;-91
2022/05/25 00:46:36;;;;;;;1.13;1.03;;;14.40;99.90;;;;;;4837820;29;20201;-92
2022/05/25 00:49:12;;;;;;;1.47;1.20;;;14.40;99.90;;;;;;4830645;29;20465;-92
2022/05/25 00:51:55;;;;;;;1.30;1.20;;;14.30;99.90;;;;;;4830146;29;20475;-89
2022/05/25 00:54:40;;;;;;;1.53;1.17;;;14.20;99.90;;;;;;4822461;29;20471;-89
2022/05/25 00:57:16;;;;;;;1.23;1.10;;;14.20;99.90;;;;;;4819423;29;20486;-91
2022/05/25 01:00:02;;;;;;;1.37;1.27;;;14.20;99.90;;;;;;4818599;29;20450;-89
2022/05/25 01:02:30;;;;;;;1.50;1.40;;;14.20;99.90;;;;;;4800743;29;20560;-89
2022/05/25 01:05:03;;;;;;;1.50;1.40;;;14.20;99.90;;;;;;4832650;29;20449;-88
2022/05/25 01:07:50;;;;;;;1.20;0.97;;;14.20;99.90;;;;;;4819932;29;20455;-92
2022/05/25 01:10:49;;;;;;;1.93;1.17;;;14.20;99.90;;;;;;4819205;29;21636;-91
2022/05/25 01:13:53;;;;;;;1.30;1.20;;;14.20;99.90;;;;;;4829442;29;20487;-92
2022/05/25 01:16:38;;;;;;;2.53;1.50;;;14.20;99.90;;;;;;4831842;29;20469;-92
2022/05/25 01:19:23;;;;;;;3.90;1.30;;;14.10;99.90;;;;;;4843947;29;20450;-92
2022/05/25 01:22:00;;;;;;;1.90;1.37;;;14.00;99.90;;;;;;4826845;29;20455;-92
2022/05/25 01:25:01;;;;;;;1.10;1.00;;;14.00;99.90;;;;;;4836206;29;20439;-91
2022/05/25 01:27:44;;;;;;;1.40;1.30;;;14.00;99.90;;;;;;4824425;29;20454;-91
2022/05/25 01:30:48;;;;;;;1.37;1.17;;;14.00;99.90;;;;;;4833927;29;25093;-91
2022/05/25 01:33:28;;;;;;;1.70;1.37;;;14.00;99.90;;;;;;4822333;29;20988;-90
2022/05/25 01:36:10;;;;;;;1.70;1.60;;;13.90;99.90;;;;;;4827743;29;20539;-90
2022/05/25 01:38:45;;;;;;;2.30;1.20;;;13.90;99.90;;;;;;4818281;29;20476;-90
2022/05/25 01:41:49;;;;;;;1.80;1.30;;;14.00;99.90;;;;;;4820718;29;21148;-91
2022/05/25 01:44:57;;;;;;;1.53;0.97;;;14.10;99.90;;;;;;4831160;29;20463;-91
2022/05/25 01:47:26;;;;;;;1.60;1.50;;;14.00;99.90;;;;;;4835922;29;20527;-88
2022/05/25 01:50:15;;;;;;;2.03;1.20;;;14.00;99.90;;;;;;4819929;29;20454;-89
2022/05/25 01:52:46;;;;;;;3.70;1.30;;;14.00;99.90;;;;;;4819013;29;20477;-89
2022/05/25 01:55:22;;;;;;;1.70;1.60;;;14.00;99.90;;;;;;4821056;29;20455;-89
2022/05/25 01:57:52;;;;;;;1.47;1.40;;;13.90;99.90;;;;;;4828259;29;20487;-88
2022/05/25 02:01:09;;;;;;;1.20;1.20;;;13.90;99.90;;;;;;4827653;29;20806;-90
2022/05/25 02:06:45;;;;;;;1.77;1.60;;;13.90;99.90;;;;;;4839152;29;21502;-91
2022/05/25 02:09:35;;;;;;;2.73;1.53;;;13.90;99.90;;;;;;4822592;29;20928;-90
2022/05/25 02:12:24;;;;;;;1.73;1.43;;;13.90;99.90;;;;;;4842219;29;20921;-88
2022/05/25 02:15:23;;;;;;;1.93;1.83;;;13.80;99.90;;;;;;4837560;29;20518;-88
2022/05/25 02:18:30;;;;;;;1.83;1.40;;;13.70;99.90;;;;;;4832498;29;20486;-88
2022/05/25 02:21:43;;;;;;;1.80;1.40;;;13.80;99.90;;;;;;4837171;29;20493;-88
2022/05/25 02:24:40;;;;;;;1.97;1.60;;;13.90;99.90;;;;;;4818806;29;21154;-88
2022/05/25 02:27:27;;;;;;;1.43;1.40;;;13.80;99.90;;;;;;4824137;29;22052;-89
2022/05/25 02:29:58;;;;;;;1.90;1.50;;;13.90;99.90;;;;;;4831614;29;20779;-89
2022/05/25 02:32:37;;;;;;;1.80;1.70;;;13.90;99.90;;;;;;4824934;29;20447;-89
2022/05/25 02:35:06;;;;;;;2.10;1.90;;;13.90;99.90;;;;;;4827236;29;21198;-88
2022/05/25 02:37:37;;;;;;;2.20;1.63;;;13.90;99.90;;;;;;4839473;29;20504;-91
2022/05/25 02:40:06;;;;;;;1.80;1.70;;;13.90;99.90;;;;;;4829087;29;20454;-89
2022/05/25 02:42:32;;;;;;;1.80;1.70;;;14.00;99.90;;;;;;4827699;29;20504;-89
2022/05/25 02:45:04;;;;;;;1.60;1.50;;;14.00;99.90;;;;;;4825915;29;20451;-88
2022/05/25 02:47:54;;;;;;;2.00;1.70;;;13.90;99.90;;;;;;4830290;29;20788;-88
2022/05/25 02:50:35;;;;;;;2.57;1.43;;;14.00;99.90;;;;;;4819042;29;20461;-90
2022/05/25 02:53:01;;;;;;;1.53;1.40;;;13.90;99.90;;;;;;4830031;29;20471;-88
2022/05/25 02:55:27;;;;;;;1.60;1.50;;;13.90;99.90;;;;;;4827282;29;20557;-89
2022/05/25 02:57:52;;;;;;;1.43;1.20;;;13.90;99.90;;;;;;4827626;29;20569;-90
2022/05/25 03:00:18;;;;;;;1.93;1.53;;;13.90;99.90;;;;;;4830783;29;20201;-88
2022/05/25 03:02:45;;;;;;;1.30;1.20;;;13.80;99.90;;;;;;4830219;29;20278;-90
2022/05/25 03:05:12;;;;;;;1.20;1.10;;;13.90;99.90;;;;;;4816506;29;20190;-90
2022/05/25 03:07:40;;;;;;;1.63;1.30;;;13.90;99.90;;;;;;4822207;29;20452;-90
2022/05/25 03:10:09;;;;;;;1.93;1.27;;;13.90;99.90;;;;;;4827537;29;20463;-90
2022/05/25 03:12:37;;;;;;;2.80;1.50;;;13.90;99.90;;;;;;4827354;29;20581;-89
2022/05/25 03:15:06;;;;;;;1.20;1.00;;;13.90;99.90;;;;;;4829205;29;20449;-89
2022/05/25 03:17:35;;;;;;;2.17;1.40;;;13.80;99.90;;;;;;4831798;29;20486;-89
2022/05/25 03:20:02;;;;;;;1.20;1.20;;;13.80;99.90;;;;;;4824570;29;20558;-89
2022/05/25 03:22:27;;;;;;;1.57;1.40;;;13.80;99.90;;;;;;4828391;29;21022;-88
2022/05/25 03:24:53;;;;;;;2.13;1.60;;;13.80;99.90;;;;;;4826570;29;21208;-89
2022/05/25 03:27:19;;;;;;;4.30;1.30;;;13.80;99.90;;;;;;4825938;29;20233;-89
2022/05/25 03:29:46;;;;;;;1.50;1.33;;;13.80;99.90;;;;;;4844975;29;20180;-89
2022/05/25 03:32:11;;;;;;;1.40;1.30;;;13.90;99.90;;;;;;4843109;29;20190;-90
2022/05/25 03:34:37;;;;;;;1.77;1.50;;;13.80;99.90;;;;;;4836779;29;20499;-89
2022/05/25 03:37:03;;;;;;;1.30;1.30;;;13.70;99.90;;;;;;4833748;29;20535;-90
2022/05/25 03:39:29;;;;;;;2.43;1.70;;;13.70;99.90;;;;;;4836279;29;20669;-90
2022/05/25 03:42:07;;;;;;;1.90;1.80;;;13.80;99.90;;;;;;4833863;29;21012;-90
2022/05/25 03:44:36;;;;;;;2.00;1.80;;;13.80;99.90;;;;;;4834536;29;20443;-89
2022/05/25 03:47:02;;;;;;;1.90;1.80;;;13.70;99.90;;;;;;4835078;29;20459;-92
2022/05/25 03:49:46;;;;;;;1.80;1.70;;;13.70;99.90;;;;;;4825547;29;21064;-91
2022/05/25 03:52:18;;;;;;;2.50;1.90;;;13.70;99.90;;;;;;4819091;29;20981;-89
2022/05/25 03:54:47;;;;;;;1.57;1.47;;;13.70;99.90;;;;;;4826098;29;20503;-91
2022/05/25 04:00:30;;;;;;;2.97;1.30;;;13.70;99.90;;;;;;4929494;23;20510;-96
2022/05/25 04:03:02;;;;;;;1.47;1.30;;;13.80;99.90;;;;;;5023474;23;20785;-96
2022/05/25 04:05:32;;;;;;;1.77;1.67;;;14.10;99.90;;;;;;4851418;29;20903;-94
2022/05/25 04:08:01;;;;;;;2.50;1.80;;;14.20;99.90;;;;;;4846004;29;20450;-96
2022/05/25 04:10:28;;;;;;;1.70;1.60;;;14.20;99.90;;;;;;4817346;29;20464;-90
2022/05/25 04:12:59;;;;;;;2.33;2.13;;;14.20;99.90;;;;;;4824413;29;20499;-94
2022/05/25 04:15:26;;;;;;;7.80;7.00;;;14.00;99.90;;;;;;4844666;29;20451;-90
2022/05/25 04:17:53;;;;;;;4.60;4.30;;;14.10;99.90;;;;;;4835735;29;20542;-92
2022/05/25 04:20:19;;;;;;;5.30;4.77;;;14.20;99.90;;;;;;4859919;29;20934;-92
2022/05/25 04:22:45;;;;;;;1.87;1.77;;;14.30;99.90;;;;;;4834639;29;20549;-91
2022/05/25 04:25:50;;;;;;;8.50;7.70;;;14.20;99.90;;;;;;4853613;29;21743;-94
2022/05/25 04:28:25;;;;;;;13.50;12.43;;;14.10;99.90;;;;;;4860418;23;20276;-92
2022/05/25 04:30:51;;;;;;;3.80;1.80;;;13.90;99.90;;;;;;4846065;29;20510;-93
2022/05/25 04:33:17;;;;;;;1.87;1.77;;;13.80;99.90;;;;;;4861358;29;20459;-95
2022/05/25 04:35:43;;;;;;;2.73;1.90;;;13.70;99.90;;;;;;4867884;29;20195;-95
2022/05/25 04:38:13;;;;;;;1.93;1.83;;;13.60;99.90;;;;;;4865468;29;20439;-92
2022/05/25 04:40:41;;;;;;;1.80;1.70;;;13.50;99.90;;;;;;4863992;29;21208;-92
2022/05/25 04:43:13;;;;;;;2.23;2.13;;;13.50;99.90;;;;;;4844306;29;20451;-93
2022/05/25 04:45:44;;;;;;;2.20;2.00;;;13.60;99.90;;;;;;4846888;29;20561;-92
2022/05/25 04:48:13;;;;;;;2.10;1.83;;;13.60;99.90;;;;;;4865584;29;20983;-93
2022/05/25 04:50:41;;;;;;;1.93;1.83;;;13.50;99.90;;;;;;4851248;29;20873;-92
2022/05/25 04:53:08;;;;;;;2.33;2.17;;;13.50;99.90;;;;;;4847015;29;20447;-93
2022/05/25 04:58:24;;;;;;;2.80;1.90;;;13.40;99.90;;;;;;4854195;29;20466;-92
2022/05/25 05:00:50;;;;;;;2.30;2.10;;;13.50;99.90;;;;;;4864864;29;20534;-92
2022/05/25 05:03:17;;;;;;;1.60;1.50;;;13.50;99.90;;;;;;4854227;29;20454;-92
2022/05/25 05:05:43;;;;;;;2.27;2.07;;;13.60;99.90;;;;;;4868210;29;20490;-93
2022/05/25 05:08:09;;;;;;;4.63;1.93;;;13.70;99.90;;;;;;4846986;29;20474;-92
2022/05/25 05:10:35;;;;;;;2.67;2.10;;;13.70;99.90;;;;;;4849529;29;20511;-93
2022/05/25 05:13:04;;;;;;;1.83;1.73;;;13.70;99.90;;;;;;4866252;29;20184;-93
2022/05/25 05:15:49;;;;;;;2.30;2.10;;;13.70;99.90;;;;;;4851885;29;20458;-94
2022/05/25 05:18:16;;;;;;;2.47;2.27;;;13.70;99.90;;;;;;4851115;29;20462;-94
2022/05/25 05:20:42;;;;;;;2.60;2.30;;;13.70;99.90;;;;;;4853322;29;20450;-92
2022/05/25 05:23:08;;;;;;;3.00;2.20;;;13.70;99.90;;;;;;4861139;29;20466;-93
2022/05/25 05:25:50;;;;;;;2.03;1.80;;;13.60;99.90;;;;;;4849575;29;20209;-94
2022/05/25 05:28:30;;;;;;;2.33;2.13;;;13.60;99.90;;;;;;4852507;29;20662;-94
2022/05/25 05:30:58;;;;;;;2.07;1.87;;;13.70;99.90;;;;;;4865541;29;20495;-93
2022/05/25 05:33:26;;;;;;;2.23;1.90;;;13.70;99.90;;;;;;4849112;29;20447;-94
2022/05/25 05:36:17;;;;;;;3.83;2.20;;;13.80;99.90;;;;;;4849836;29;20510;-93
2022/05/25 05:38:55;;;;;;;2.37;1.90;;;13.90;99.90;;;;;;4851308;29;20847;-92
2022/05/25 05:41:24;;;;;;;3.17;2.50;;;14.00;99.90;;;;;;4850940;29;20500;-92
2022/05/25 05:43:50;;;;;;;2.03;1.93;;;14.10;99.90;;;;;;4870243;29;20506;-93
2022/05/25 05:46:16;;;;;;;2.40;2.20;;;14.30;99.90;;;;;;4881833;29;20848;-92
2022/05/25 05:48:42;;;;;;;2.30;2.10;;;14.30;99.90;;;;;;4853965;29;20478;-92
2022/05/25 05:51:09;;;;;;;2.33;2.13;;;14.40;99.90;;;;;;4861006;29;20462;-93
2022/05/25 05:53:37;;;;;;;2.27;2.07;;;14.50;99.90;;;;;;4875278;29;20903;-92
2022/05/25 05:56:04;;;;;;;2.23;2.03;;;14.60;99.90;;;;;;4843339;29;20510;-91
2022/05/25 05:58:30;;;;;;;1.50;1.40;;;14.40;99.90;;;;;;4866351;29;20475;-91
2022/05/25 06:00:55;;;;;;;2.17;1.80;;;14.50;99.90;;;;;;4864264;29;20443;-91
2022/05/25 06:03:21;;;;;;;2.40;1.87;;;14.50;99.90;;;;;;4863131;29;20222;-92
2022/05/25 06:05:47;;;;;;;2.20;1.57;;;14.50;99.90;;;;;;4868970;29;20695;-92
2022/05/25 06:08:16;;;;;;;2.20;1.60;;;14.50;99.90;;;;;;4860445;29;20195;-92
2022/05/25 06:10:42;;;;;;;4.87;1.50;;;14.40;99.90;;;;;;4864191;29;20265;-93
2022/05/25 06:13:08;;;;;;;1.80;1.70;;;14.40;99.90;;;;;;4852263;29;20458;-86
2022/05/25 06:21:03;;;;;;;1.73;1.63;;;14.60;99.90;;;;;;4840298;29;20506;-87
2022/05/25 06:23:29;;;;;;;2.03;1.30;;;14.70;99.90;;;;;;4837548;29;20439;-85
2022/05/25 06:25:54;;;;;;;1.20;1.10;;;14.90;99.90;;;;;;4834279;29;20868;-87
2022/05/25 06:28:20;;;;;;;3.60;1.50;;;15.00;99.90;;;;;;4855499;29;20205;-85
2022/05/25 06:30:46;;;;;;;3.13;1.70;;;15.20;99.90;;;;;;4851195;29;20718;-84
2022/05/25 06:33:11;;;;;;;2.37;1.40;;;15.30;99.90;;;;;;4837590;29;20191;-82
2022/05/25 06:35:37;;;;;;;1.20;1.10;;;15.50;99.90;;;;;;4851281;29;20316;-85
2022/05/25 06:38:03;;;;;;;1.47;1.37;;;15.90;99.90;;;;;;4857268;29;20321;-85
2022/05/25 06:40:29;;;;;;;1.50;1.30;;;16.00;99.90;;;;;;4839197;29;20282;-85
2022/05/25 06:42:54;;;;;;;1.63;1.30;;;16.20;99.90;;;;;;4851711;29;20459;-85
2022/05/25 06:45:20;;;;;;;1.70;1.60;;;16.40;99.90;;;;;;4852166;29;20807;-84
2022/05/25 06:47:45;;;;;;;2.60;1.60;;;16.40;99.90;;;;;;4838907;29;20404;-87
2022/05/25 06:50:12;;;;;;;3.50;1.03;;;15.90;99.90;;;;;;4837156;29;20206;-85
2022/05/25 06:52:37;;;;;;;3.13;1.47;;;15.70;99.90;;;;;;4859153;29;20190;-85
2022/05/25 06:55:04;;;;;;;1.57;1.20;;;15.60;99.90;;;;;;4840620;29;23855;-85
2022/05/25 06:57:30;;;;;;;1.47;1.30;;;15.70;99.90;;;;;;4837103;29;20233;-84
2022/05/25 06:59:55;;;;;;;2.40;1.20;;;15.60;99.90;;;;;;4836904;29;20451;-85
2022/05/25 07:02:22;;;;;;;2.67;1.43;;;15.40;99.90;;;;;;4831335;29;20898;-85
2022/05/25 07:04:48;;;;;;;2.50;1.10;;;15.50;99.90;;;;;;4838806;29;20653;-84
2022/05/25 07:07:15;;;;;;;3.90;1.80;;;15.60;99.90;;;;;;4841878;29;20461;-85
2022/05/25 07:09:41;;;;;;;2.53;1.40;;;15.60;99.90;;;;;;4834707;29;20198;-85
2022/05/25 07:12:07;;;;;;;2.20;1.40;;;15.40;99.90;;;;;;4851564;29;20466;-86
2022/05/25 07:14:33;;;;;;;2.50;1.47;;;15.00;99.90;;;;;;4836830;29;20645;-86
2022/05/25 07:17:03;;;;;;;1.30;1.20;;;15.10;99.90;;;;;;4838275;29;20612;-85
2022/05/25 07:19:28;;;;;;;1.30;1.20;;;15.40;99.90;;;;;;4851955;29;20456;-85
2022/05/25 07:21:54;;;;;;;2.80;1.60;;;15.60;99.90;;;;;;4835461;29;20466;-85
2022/05/25 07:24:20;;;;;;;1.87;1.20;;;15.80;99.70;;;;;;4842112;29;20182;-86
2022/05/25 07:26:45;;;;;;;2.17;1.57;;;16.00;99.90;;;;;;4841488;29;21767;-85
2022/05/25 07:29:12;;;;;;;1.20;1.20;;;15.90;99.90;;;;;;4833953;29;20833;-87
2022/05/25 07:31:52;;;;;;;1.83;1.73;;;15.70;99.90;;;;;;4851328;29;20221;-86
2022/05/25 07:34:21;;;;;;;1.87;1.40;;;15.40;99.90;;;;;;4843884;29;20976;-86
2022/05/25 07:36:51;;;;;;;1.53;1.43;;;15.40;99.90;;;;;;4860800;29;20845;-86
2022/05/25 07:39:21;;;;;;;1.87;1.77;;;15.60;99.90;;;;;;4843176;29;20482;-87
2022/05/25 07:41:52;;;;;;;2.10;1.10;;;15.60;99.90;;;;;;4849541;29;20455;-87
2022/05/25 07:44:23;;;;;;;1.33;1.20;;;15.90;99.90;;;;;;4866544;29;20435;-87
2022/05/25 07:46:49;;;;;;;1.40;1.30;;;16.00;99.10;;;;;;4848970;29;20794;-87
2022/05/25 07:49:15;;;;;;;1.63;1.47;;;15.80;99.10;;;;;;4847413;29;20966;-87
2022/05/25 07:51:41;;;;;;;2.07;1.43;;;15.70;99.30;;;;;;4830452;29;20451;-86
2022/05/25 07:54:07;;;;;;;3.53;1.50;;;16.10;99.90;;;;;;4843832;29;20447;-89
2022/05/25 07:56:35;;;;;;;1.63;1.40;;;16.40;99.10;;;;;;4856254;29;20233;-88
2022/05/25 07:59:03;;;;;;;1.40;1.30;;;16.80;97.60;;;;;;4835748;29;20202;-89
2022/05/25 08:07:05;;;;;;;2.27;1.30;;;16.80;96.90;;;;;;4837513;29;21469;-89
2022/05/25 08:09:31;;;;;;;2.57;1.10;;;17.30;97.90;;;;;;4854819;29;21097;-89
2022/05/25 08:11:59;;;;;;;2.00;1.00;;;17.60;94.00;;;;;;4850187;29;20782;-87
2022/05/25 08:14:25;;;;;;;1.70;1.30;;;17.90;93.40;;;;;;4836822;29;21362;-89
2022/05/25 08:16:52;;;;;;;1.60;1.10;;;17.80;93.50;;;;;;4854274;29;20467;-88
2022/05/25 08:19:17;;;;;;;1.60;1.10;;;17.50;94.40;;;;;;4852977;29;20445;-87
2022/05/25 08:21:43;;;;;;;1.43;1.30;;;17.60;95.30;;;;;;4835406;29;20460;-88
2022/05/25 08:24:08;;;;;;;2.13;1.10;;;17.80;94.00;;;;;;4851870;29;20194;-87
2022/05/25 08:26:34;;;;;;;1.40;1.30;;;17.20;94.60;;;;;;4857690;29;20646;-88
2022/05/25 08:28:59;;;;;;;1.83;1.20;;;17.00;95.10;;;;;;4839131;29;20202;-89
2022/05/25 08:31:26;;;;;;;2.13;1.17;;;17.10;96.20;;;;;;4847620;29;20273;-87
2022/05/25 08:33:51;;;;;;;2.33;1.30;;;17.40;96.00;;;;;;4854050;29;20187;-88
2022/05/25 08:36:17;;;;;;;0.97;0.97;;;17.60;94.00;;;;;;4833126;29;20474;-91
2022/05/25 08:39:06;;;;;;;2.47;1.23;;;17.30;94.40;;;;;;4844689;29;20855;-89
2022/05/25 09:00:34;;;;;;;3.53;1.17;;;19.20;93.70;;;;;;4588220;27;20544;-88
2022/05/25 09:03:07;;;;;;;2.20;1.23;;;18.90;93.10;;;;;;4850912;29;20502;-88
2022/05/25 09:05:44;;;;;;;1.40;1.30;;;18.60;92.80;;;;;;4846081;29;21274;-88
2022/05/25 09:08:24;;;;;;;1.03;1.03;;;18.80;93.00;;;;;;4846413;29;20446;-88
2022/05/25 09:10:58;;;;;;;1.57;1.17;;;18.80;93.20;;;;;;4860377;29;20506;-88
2022/05/25 09:13:37;;;;;;;4.07;1.17;;;18.70;92.80;;;;;;4844954;29;20451;-89
2022/05/25 09:16:16;;;;;;;4.40;1.20;;;18.50;92.20;;;;;;4856310;29;20455;-87
2022/05/25 09:19:13;;;;;;;2.43;1.43;;;18.90;93.10;;;;;;4846824;29;20440;-87
2022/05/25 09:21:58;;;;;;;1.77;0.90;;;19.30;91.90;;;;;;4836530;29;20451;-87
2022/05/25 09:24:26;;;;;;;2.50;1.47;;;19.70;91.30;;;;;;4846955;29;20587;-87
2022/05/25 09:26:52;;;;;;;1.47;1.10;;;19.30;92.00;;;;;;4845492;29;20521;-87
2022/05/25 09:29:19;;;;;;;0.90;0.90;;;19.30;92.10;;;;;;4845278;29;20851;-87
2022/05/25 09:31:51;;;;;;;2.53;1.07;;;19.70;90.90;;;;;;4860470;29;20469;-86
2022/05/25 09:34:35;;;;;;;1.53;1.43;;;20.00;90.50;;;;;;4849285;29;20523;-87
2022/05/25 09:37:10;;;;;;;2.33;0.90;;;19.70;91.40;;;;;;4850436;29;20771;-87
2022/05/25 09:39:42;;;;;;;1.23;0.90;;;19.40;91.20;;;;;;4848619;29;20438;-87
2022/05/25 09:42:17;;;;;;;1.40;1.03;;;19.30;92.60;;;;;;4838105;29;20653;-87
2022/05/25 09:44:47;;;;;;;1.80;1.10;;;19.40;92.90;;;;;;4844899;29;20514;-87
2022/05/25 09:47:31;;;;;;;1.97;1.10;;;19.20;90.90;;;;;;4851321;29;20611;-86
2022/05/25 09:50:00;;;;;;;1.53;1.23;;;19.20;92.00;;;;;;4863521;29;20443;-87
2022/05/25 09:52:39;;;;;;;1.90;1.10;;;19.20;91.10;;;;;;4865639;29;20462;-87
2022/05/25 09:55:12;;;;;;;1.47;0.90;;;19.20;90.90;;;;;;4850174;29;20443;-87
2022/05/25 09:57:45;;;;;;;0.90;0.80;;;18.90;90.30;;;;;;4857759;29;20576;-89
2022/05/25 10:00:23;;;;;;;1.10;1.10;;;18.80;91.50;;;;;;4850701;29;21055;-88
2022/05/25 10:02:57;;;;;;;2.50;0.93;;;19.70;92.10;;;;;;4833523;29;20455;-87
2022/05/25 10:05:32;;;;;;;4.10;1.10;;;19.60;90.50;;;;;;4847418;29;20447;-88
2022/05/25 10:08:15;;;;;;;2.60;0.90;;;19.60;90.90;;;;;;4849630;29;20513;-88
2022/05/25 10:10:56;;;;;;;1.13;1.00;;;20.30;90.10;;;;;;4831599;29;20453;-89
2022/05/25 10:13:28;;;;;;;2.07;0.90;;;20.70;87.10;;;;;;4838812;29;20905;-88
2022/05/25 10:15:55;;;;;;;5.70;1.33;;;20.10;87.00;;;;;;4832776;29;20451;-88
2022/05/25 10:18:48;;;;;;;1.00;0.97;;;20.00;88.60;;;;;;4836000;29;20450;-88
2022/05/25 10:21:27;;;;;;;1.30;1.20;;;19.80;88.00;;;;;;4836949;29;20451;-88
2022/05/25 10:23:53;;;;;;;1.90;1.03;;;20.40;88.30;;;;;;4833815;29;20455;-88
2022/05/25 10:26:33;;;;;;;0.90;0.90;;;20.60;86.30;;;;;;4848495;29;20883;-88
2022/05/25 10:29:05;;;;;;;0.83;0.83;;;20.80;87.10;;;;;;4836458;29;21065;-88
2022/05/25 10:37:36;;;;;;;1.10;0.90;;;21.90;85.80;;;;;;4843814;29;20501;-88
2022/05/25 10:40:06;;;;;;;0.93;0.83;;;21.00;88.90;;;;;;4846489;29;20451;-88
2022/05/25 10:42:39;;;;;;;1.27;1.10;;;21.30;88.90;;;;;;4839149;29;20493;-89
2022/05/25 10:45:11;;;;;;;1.30;1.20;;;20.80;85.00;;;;;;4858143;29;20549;-89
2022/05/25 10:48:00;;;;;;;1.30;1.10;;;20.40;88.10;;;;;;4841102;29;20747;-89
2022/05/25 10:50:32;;;;;;;2.93;1.20;;;20.90;91.10;;;;;;4850543;29;20443;-89
2022/05/25 10:53:13;;;;;;;1.00;0.90;;;20.80;89.70;;;;;;4843459;29;20486;-88
2022/05/25 10:55:59;;;;;;;1.07;0.70;;;20.50;89.70;;;;;;4839467;29;20734;-88
2022/05/25 10:58:37;;;;;;;3.13;1.10;;;20.80;90.30;;;;;;4856718;29;20462;-89
2022/05/25 11:01:24;;;;;;;2.13;1.00;;;20.90;88.10;;;;;;4855785;29;20455;-89
2022/05/25 11:04:09;;;;;;;2.70;1.13;;;20.40;90.00;;;;;;4856687;29;21012;-89
2022/05/25 11:06:37;;;;;;;1.33;1.23;;;20.40;88.30;;;;;;4859140;29;20435;-89
2022/05/25 11:09:29;;;;;;;1.07;0.93;;;20.50;90.90;;;;;;4840675;29;20454;-89
2022/05/25 11:12:19;;;;;;;0.93;0.90;;;20.50;89.20;;;;;;4840488;29;20526;-88
2022/05/25 11:15:03;;;;;;;1.10;1.00;;;20.20;91.00;;;;;;4846936;29;20462;-89
2022/05/25 11:18:01;;;;;;;1.90;1.00;;;20.30;90.60;;;;;;4859749;29;20497;-90
2022/05/25 11:21:17;;;;;;;1.77;1.10;;;19.50;87.10;;;;;;4846351;29;20556;-89
2022/05/25 11:24:04;;;;;;;0.83;0.83;;;19.10;89.10;;;;;;4844984;29;20447;-89
2022/05/25 11:26:49;;;;;;;1.73;1.13;;;19.40;88.60;;;;;;4850162;29;20459;-88
2022/05/25 11:29:48;;;;;;;1.03;1.03;;;19.70;85.80;;;;;;4847610;29;20557;-89
2022/05/25 11:32:33;;;;;;;1.60;1.10;;;19.90;84.90;;;;;;4861419;29;20522;-89
2022/05/25 11:35:21;;;;;;;1.97;1.27;;;19.50;86.90;;;;;;4841907;29;20487;-89
2022/05/25 11:38:19;;;;;;;1.73;0.80;;;19.40;89.10;;;;;;4850479;29;20573;-88
2022/05/25 11:41:03;;;;;;;1.73;1.27;;;20.40;86.10;;;;;;4844586;29;20451;-89
2022/05/25 11:43:45;;;;;;;1.00;0.93;;;21.10;85.10;;;;;;4851128;29;21400;-88
2022/05/25 11:46:37;;;;;;;1.70;0.93;;;21.30;83.50;;;;;;4847890;29;20443;-89
2022/05/25 11:49:10;;;;;;;0.80;0.80;;;21.40;81.60;;;;;;4846943;29;20453;-89
2022/05/25 11:52:10;;;;;;;1.80;0.97;;;21.80;83.70;;;;;;4851540;29;20523;-89
2022/05/25 11:54:44;;;;;;;1.57;0.90;;;22.60;80.20;;;;;;4855449;29;20458;-89
2022/05/25 11:57:22;;;;;;;1.67;0.87;;;22.90;73.90;;;;;;4862918;29;20545;-89
2022/05/25 11:59:53;;;;;;;0.93;0.90;;;22.60;71.80;;;;;;4852275;29;20505;-89
2022/05/25 12:02:43;;;;;;;0.83;0.83;;;22.20;72.90;;;;;;4851220;29;20451;-89
2022/05/25 12:05:29;;;;;;;2.10;0.90;;;22.30;76.80;;;;;;4845805;29;20475;-88
2022/05/25 12:08:14;;;;;;;0.70;0.70;;;22.70;73.00;;;;;;4852471;29;20483;-88
2022/05/25 12:10:45;;;;;;;0.80;0.80;;;22.10;73.10;;;;;;4862388;29;20446;-89
2022/05/25 12:13:47;;;;;;;1.53;0.80;;;22.10;72.60;;;;;;4850842;29;20471;-89
2022/05/25 12:16:21;;;;;;;2.70;0.80;;;22.10;74.90;;;;;;4849241;29;20461;-89
2022/05/25 12:18:56;;;;;;;1.87;1.10;;;22.10;72.80;;;;;;4862777;29;20451;-90
2022/05/25 12:21:56;;;;;;;1.40;0.90;;;22.70;76.00;;;;;;4859933;29;20446;-89
2022/05/25 12:24:26;;;;;;;1.43;1.30;;;22.40;74.20;;;;;;4849079;29;20463;-89
2022/05/25 12:27:02;;;;;;;2.13;0.90;;;22.50;78.10;;;;;;4859856;29;20455;-90
2022/05/25 12:29:38;;;;;;;1.50;1.00;;;22.20;79.10;;;;;;4848589;29;20446;-89
2022/05/25 12:32:17;;;;;;;1.40;0.80;;;22.30;78.70;;;;;;4846470;29;20447;-89
2022/05/25 12:34:50;;;;;;;1.90;0.80;;;22.50;80.00;;;;;;4861530;29;21257;-89
2022/05/25 12:37:34;;;;;;;1.47;0.90;;;22.50;77.60;;;;;;4866908;29;20546;-89
2022/05/25 12:40:08;;;;;;;3.90;1.40;;;22.50;75.70;;;;;;4847739;29;20443;-89
2022/05/25 12:42:40;;;;;;;1.10;1.10;;;22.40;72.80;;;;;;4847196;29;20530;-89
2022/05/25 12:48:35;;;;;;;1.47;0.90;;;21.80;75.80;;;;;;4851221;29;20450;-89
2022/05/25 12:51:06;;;;;;;1.03;1.03;;;21.90;73.60;;;;;;4851035;29;20546;-88
2022/05/25 12:53:41;;;;;;;2.10;0.70;;;21.80;76.10;;;;;;4848545;29;20449;-89
2022/05/25 12:56:30;;;;;;;2.13;1.00;;;22.40;75.20;;;;;;4845837;29;20988;-88
2022/05/25 12:59:00;;;;;;;1.67;1.10;;;22.40;72.70;;;;;;4860890;29;20490;-88
2022/05/25 13:01:30;;;;;;;1.10;0.90;;;22.50;75.20;;;;;;4845741;29;20957;-89
2022/05/25 13:03:56;;;;;;;1.13;0.80;;;23.00;75.40;;;;;;4849191;29;21088;-89
2022/05/25 13:06:35;;;;;;;2.70;1.00;;;23.20;73.90;;;;;;4850896;29;20828;-90
2022/05/25 13:09:09;;;;;;;1.10;1.00;;;23.50;78.60;;;;;;4846547;29;20182;-88
2022/05/25 13:11:59;;;;;;;2.70;1.07;;;24.30;78.20;;;;;;4832593;29;20523;-90
2022/05/25 13:14:42;;;;;;;2.87;1.30;;;24.50;69.90;;;;;;4829345;29;20455;-89
2022/05/25 13:18:00;;;;;;;1.00;0.90;;;23.90;72.30;;;;;;4851859;29;20499;-88
2022/05/25 13:20:29;;;;;;;0.80;0.70;;;24.30;76.90;;;;;;4807207;29;20448;-88
2022/05/25 13:22:59;;;;;;;1.17;0.80;;;24.40;69.80;;;;;;4827146;29;20448;-88
2022/05/25 13:25:55;;;;;;;1.27;1.10;;;24.20;68.90;;;;;;4838790;29;20454;-87
2022/05/25 13:29:02;;;;;;;1.20;1.10;;;23.60;70.40;;;;;;4848246;29;20446;-89
2022/05/25 13:31:56;;;;;;;0.90;0.60;;;24.60;66.30;;;;;;4847129;29;20480;-88
2022/05/25 13:34:22;;;;;;;1.90;1.23;;;25.20;69.80;;;;;;4849326;29;20446;-87
2022/05/25 13:36:58;;;;;;;1.70;1.10;;;23.80;69.00;;;;;;4863314;29;21012;-88
2022/05/25 13:39:30;;;;;;;2.20;1.17;;;23.20;69.20;;;;;;4847547;29;20799;-88
2022/05/25 13:42:18;;;;;;;3.40;1.10;;;23.30;72.20;;;;;;4858610;29;21261;-90
2022/05/25 13:45:17;;;;;;;1.63;1.10;;;23.20;70.80;;;;;;4846760;29;20454;-88
2022/05/25 13:47:54;;;;;;;1.20;0.77;;;23.40;68.50;;;;;;4832456;29;20459;-88
2022/05/25 13:50:39;;;;;;;0.97;0.90;;;24.00;65.90;;;;;;4856748;29;20966;-88
2022/05/25 13:53:12;;;;;;;1.80;1.00;;;25.70;62.70;;;;;;4872812;29;20478;-91
2022/05/25 13:55:40;;;;;;;1.20;0.80;;;26.60;66.20;;;;;;4857552;29;20458;-90
2022/05/25 13:58:14;;;;;;;2.80;1.00;;;29.40;63.30;;;;;;4852614;29;20507;-92
2022/05/25 14:00:43;;;;;;;3.80;1.30;;;32.00;57.60;;;;;;4864482;29;20458;-89
2022/05/25 14:03:19;;;;;;;2.30;0.80;;;32.80;51.80;;;;;;4863722;29;20451;-88
2022/05/25 14:05:45;;;;;;;0.80;0.80;;;32.60;47.20;;;;;;4861044;29;20455;-88
2022/05/25 14:08:22;;;;;;;0.70;0.70;;;28.40;47.20;;;;;;4843952;29;21056;-92
2022/05/25 14:11:04;;;;;;;1.00;1.00;;;25.00;53.80;;;;;;4855970;29;20506;-95
2022/05/25 14:13:41;;;;;;;1.00;0.80;;;28.10;55.80;;;;;;4859471;29;20514;-96
2022/05/25 14:26:51;;;;;;;1.13;0.90;;;35.60;42.40;;;;;;5546881;23;20498;-96